createdAt,value
2018-12-14T00:00:11.579Z,11.60
2018-12-14T00:04:56.011Z,13.63
2018-12-14T00:09:41.995Z,7.67
2018-12-14T00:14:29.413Z,7.20
2018-12-14T00:19:15.672Z,8.67
2018-12-14T00:24:00.873Z,7.10
2018-12-14T00:28:45.090Z,8.27
2018-12-14T00:33:29.684Z,9.07
2018-12-14T00:38:14.795Z,6.30
2018-12-14T00:43:01.058Z,6.73
2018-12-14T00:47:46.220Z,7.17
2018-12-14T00:52:31.460Z,5.10
2018-12-14T00:57:16.606Z,4.17
2018-12-14T01:02:01.878Z,4.80
2018-12-14T01:06:47.261Z,6.53
2018-12-14T01:11:32.964Z,5.37
2018-12-14T01:16:21.795Z,6.60
2018-12-14T01:21:06.901Z,7.80
2018-12-14T01:25:53.124Z,5.63
2018-12-14T01:30:38.864Z,7.13
2018-12-14T01:35:24.999Z,8.67
2018-12-14T01:40:10.919Z,6.63
2018-12-14T01:44:56.084Z,11.47
2018-12-14T01:49:40.336Z,8.43
2018-12-14T01:54:26.564Z,12.00
2018-12-14T01:59:11.773Z,10.37
2018-12-14T02:03:58.224Z,10.93
2018-12-14T02:08:43.483Z,8.03
2018-12-14T02:13:29.876Z,9.17
2018-12-14T02:18:15.141Z,9.10
2018-12-14T02:22:59.495Z,9.83
2018-12-14T02:27:44.692Z,10.30
2018-12-14T02:32:30.117Z,10.87
2018-12-14T02:37:15.217Z,7.10
2018-12-14T02:42:00.514Z,7.97
2018-12-14T02:46:50.152Z,4.83
2018-12-14T02:51:35.563Z,5.53
2018-12-14T02:56:20.684Z,6.17
2018-12-14T03:01:05.971Z,5.13
2018-12-14T03:05:51.192Z,7.57
2018-12-14T03:10:36.475Z,13.63
2018-12-14T03:15:21.797Z,6.23
2018-12-14T03:25:47.985Z,5.97
2018-12-14T03:30:33.203Z,4.53
2018-12-14T03:35:20.303Z,7.90
2018-12-14T03:40:05.766Z,8.13
2018-12-14T03:44:50.122Z,6.77
2018-12-14T03:49:35.369Z,5.87
2018-12-14T03:54:20.779Z,9.27
2018-12-14T03:59:05.099Z,6.53
2018-12-14T04:03:50.356Z,6.10
2018-12-14T04:08:35.544Z,9.03
2018-12-14T04:13:20.933Z,7.30
2018-12-14T04:18:04.999Z,6.20
2018-12-14T04:22:50.153Z,7.63
2018-12-14T04:27:35.208Z,7.00
2018-12-14T04:32:23.286Z,18.03
2018-12-14T04:37:08.826Z,45.83
2018-12-14T04:41:53.147Z,16.10
2018-12-14T04:46:38.696Z,6.57
2018-12-14T04:51:23.988Z,11.47
2018-12-14T04:56:08.428Z,5.77
2018-12-14T05:00:53.722Z,8.90
2018-12-14T05:05:39.103Z,15.90
2018-12-14T05:10:24.249Z,13.53
2018-12-14T05:15:09.346Z,24.93
2018-12-14T05:19:54.458Z,26.13
2018-12-14T05:24:38.641Z,22.33
2018-12-14T05:29:22.790Z,24.37
2018-12-14T05:34:11.547Z,49.23
2018-12-14T05:38:56.730Z,50.70
2018-12-14T05:43:42.085Z,41.57
2018-12-14T05:48:27.213Z,32.80
2018-12-14T05:53:12.490Z,22.97
2018-12-14T05:57:56.859Z,23.37
2018-12-14T06:02:41.518Z,19.70
2018-12-14T06:07:25.767Z,24.57
2018-12-14T06:12:11.318Z,20.37
2018-12-14T06:16:55.877Z,20.10
2018-12-14T06:21:40.157Z,24.50
2018-12-14T06:26:24.479Z,48.10
2018-12-14T06:31:08.797Z,63.23
2018-12-14T06:35:54.266Z,54.07
2018-12-14T06:40:38.426Z,62.57
2018-12-14T06:45:22.829Z,64.00
2018-12-14T06:50:07.049Z,62.20
2018-12-14T06:54:51.604Z,27.70
2018-12-14T06:59:36.125Z,28.73
2018-12-14T07:04:20.576Z,42.23
2018-12-14T07:09:05.989Z,96.63
2018-12-14T07:13:51.781Z,129.27
2018-12-14T07:18:36.093Z,270.43
2018-12-14T07:23:20.472Z,171.03
2018-12-14T07:28:04.661Z,148.63
2018-12-14T07:32:50.113Z,156.10
2018-12-14T07:37:34.309Z,158.47
2018-12-14T07:42:18.702Z,181.80
2018-12-14T07:47:02.904Z,286.97
2018-12-14T07:51:50.088Z,340.77
2018-12-14T07:56:34.365Z,286.27
2018-12-14T08:01:18.848Z,306.50
2018-12-14T08:06:03.253Z,297.90
2018-12-14T08:10:47.434Z,165.73
2018-12-14T08:15:31.816Z,105.50
2018-12-14T08:20:17.262Z,82.87
2018-12-14T08:25:01.807Z,66.07
2018-12-14T08:29:45.916Z,104.60
2018-12-14T08:34:30.037Z,73.10
2018-12-14T08:39:14.351Z,61.40
2018-12-14T08:43:59.773Z,72.63
2018-12-14T08:48:44.238Z,44.17
2018-12-14T08:53:28.675Z,36.30
2018-12-14T08:58:12.974Z,32.87
2018-12-14T09:03:03.022Z,28.70
2018-12-14T09:07:48.044Z,25.50
2018-12-14T09:12:33.437Z,40.37
2018-12-14T09:17:17.718Z,51.33
2018-12-14T09:22:03.128Z,31.23
2018-12-14T09:26:47.358Z,29.00
2018-12-14T09:31:31.688Z,25.50
2018-12-14T09:36:15.849Z,35.00
2018-12-14T09:41:00.067Z,23.47
2018-12-14T09:45:49.950Z,35.73
2018-12-14T09:50:40.115Z,23.70
2018-12-14T09:55:24.381Z,35.90
2018-12-14T10:00:08.572Z,62.27
2018-12-14T10:04:52.978Z,51.43
2018-12-14T10:09:37.344Z,72.73
2018-12-14T10:14:21.454Z,47.70
2018-12-14T10:19:05.735Z,59.07
2018-12-14T10:23:49.957Z,81.30
2018-12-14T10:28:34.503Z,46.33
2018-12-14T10:33:19.062Z,36.53
2018-12-14T10:38:03.352Z,39.73
2018-12-14T10:42:48.650Z,58.80
2018-12-14T10:47:33.048Z,43.83
2018-12-14T10:52:17.332Z,40.37
2018-12-14T10:57:01.651Z,52.10
2018-12-14T11:01:52.328Z,38.70
2018-12-14T11:06:36.825Z,51.60
2018-12-14T11:11:21.164Z,35.53
2018-12-14T11:16:05.294Z,34.53
2018-12-14T11:20:49.367Z,44.00
2018-12-14T11:25:33.588Z,51.33
2018-12-14T11:30:17.963Z,59.47
2018-12-14T11:35:02.600Z,52.80
2018-12-14T11:39:47.744Z,47.63
2018-12-14T11:44:31.939Z,51.80
2018-12-14T11:49:16.215Z,49.83
2018-12-14T11:54:00.664Z,48.60
2018-12-14T11:58:44.897Z,55.70
2018-12-14T12:03:29.099Z,81.97
2018-12-14T12:08:14.480Z,78.73
2018-12-14T12:12:58.708Z,40.60
2018-12-14T12:17:49.157Z,54.97
2018-12-14T12:22:29.336Z,32.13
2018-12-14T12:27:13.598Z,50.20
2018-12-14T12:31:58.222Z,40.10
2018-12-14T12:36:42.655Z,26.00
2018-12-14T12:41:27.033Z,13.27
2018-12-14T12:46:11.608Z,18.47
2018-12-14T12:50:55.766Z,18.10
2018-12-14T12:55:39.932Z,17.47
2018-12-14T13:00:24.173Z,18.60
2018-12-14T13:05:08.389Z,16.23
2018-12-14T13:09:52.804Z,47.73
2018-12-14T13:14:40.106Z,25.77
2018-12-14T13:19:23.585Z,46.07
2018-12-14T13:24:07.853Z,30.80
2018-12-14T13:28:57.476Z,25.20
2018-12-14T13:33:41.796Z,20.63
2018-12-14T13:38:26.069Z,20.87
2018-12-14T13:43:10.532Z,15.27
2018-12-14T13:48:45.708Z,12.30
2018-12-14T13:53:30.913Z,11.93
2018-12-14T13:58:16.192Z,13.23
2018-12-14T14:03:01.847Z,25.60
2018-12-14T14:07:47.082Z,19.83
2018-12-14T14:12:33.462Z,45.90
2018-12-14T14:17:18.952Z,23.60
2018-12-14T14:22:03.298Z,24.13
2018-12-14T14:26:47.410Z,20.23
2018-12-14T14:31:31.676Z,16.23
2018-12-14T14:36:15.872Z,32.10
2018-12-14T14:41:01.406Z,35.27
2018-12-14T14:45:46.452Z,37.37
2018-12-14T14:50:32.033Z,32.47
2018-12-14T14:55:16.600Z,35.00
2018-12-14T15:00:07.828Z,30.57
2018-12-14T15:04:52.552Z,24.20
2018-12-14T15:09:36.933Z,28.03
2018-12-14T15:14:22.434Z,26.77
2018-12-14T15:19:07.652Z,28.07
2018-12-14T15:23:56.555Z,28.43
2018-12-14T15:28:42.319Z,31.67
2018-12-14T15:33:27.729Z,42.10
2018-12-14T15:38:15.118Z,51.77
2018-12-14T15:43:00.320Z,29.10
2018-12-14T15:47:45.517Z,34.40
2018-12-14T15:52:31.612Z,34.03
2018-12-14T15:57:17.151Z,68.07
2018-12-14T16:02:01.982Z,40.33
2018-12-14T16:06:47.701Z,46.90
2018-12-14T16:11:32.407Z,37.13
2018-12-14T16:16:17.883Z,25.07
2018-12-14T16:21:02.066Z,22.07
2018-12-14T16:25:47.045Z,41.57
2018-12-14T16:30:33.124Z,27.27
2018-12-14T16:35:18.292Z,31.07
2018-12-14T16:40:03.816Z,27.90
2018-12-14T16:44:49.095Z,26.10
2018-12-14T16:49:35.389Z,25.13
2018-12-14T16:54:20.825Z,33.10
2018-12-14T16:59:06.294Z,31.47
2018-12-14T17:03:52.732Z,21.47
2018-12-14T17:08:38.185Z,18.17
2018-12-14T17:13:29.620Z,22.07
2018-12-14T17:18:15.046Z,19.33
2018-12-14T17:23:03.441Z,25.43
2018-12-14T17:27:48.699Z,19.33
2018-12-14T17:32:34.234Z,23.40
2018-12-14T17:37:19.337Z,38.73
2018-12-14T17:42:05.611Z,21.07
2018-12-14T17:46:51.186Z,21.27
2018-12-14T17:51:35.816Z,23.40
2018-12-14T17:56:21.253Z,25.03
2018-12-14T18:01:08.616Z,18.53
2018-12-14T18:06:01.413Z,22.17
2018-12-14T18:10:50.075Z,39.20
2018-12-14T18:15:35.360Z,39.23
2018-12-14T18:20:21.838Z,32.90
2018-12-14T18:25:08.201Z,34.93
2018-12-14T18:29:54.517Z,36.80
2018-12-14T18:34:39.743Z,22.30
2018-12-14T18:39:24.723Z,17.00
2018-12-14T18:44:15.932Z,27.23
2018-12-14T18:49:00.302Z,18.10
2018-12-14T18:53:51.434Z,18.87
2018-12-14T18:58:36.944Z,30.73
2018-12-14T19:03:23.118Z,90.37
2018-12-14T19:08:08.149Z,28.57
2018-12-14T19:12:55.556Z,30.03
2018-12-14T19:17:39.817Z,29.43
2018-12-14T19:22:31.278Z,21.10
2018-12-14T19:27:15.878Z,27.17
2018-12-14T19:32:02.687Z,27.20
2018-12-14T19:36:47.406Z,18.70
2018-12-14T19:41:33.846Z,25.90
2018-12-14T19:46:18.138Z,34.00
2018-12-14T19:51:03.461Z,34.70
2018-12-14T19:55:49.819Z,46.33
2018-12-14T20:00:35.361Z,41.57
2018-12-14T20:05:20.516Z,38.70
2018-12-14T20:10:06.563Z,31.87
2018-12-14T20:14:53.218Z,26.57
2018-12-14T20:19:37.479Z,26.83
2018-12-14T20:24:22.810Z,32.03
2018-12-14T20:29:08.788Z,28.20
2018-12-14T20:33:53.752Z,26.63
2018-12-14T20:38:39.046Z,32.03
2018-12-14T20:43:26.157Z,22.70
2018-12-14T20:48:11.476Z,11.67
2018-12-14T20:52:57.824Z,15.83
2018-12-14T20:57:43.283Z,15.00
2018-12-14T21:02:31.144Z,14.17
2018-12-14T21:07:16.402Z,14.37
2018-12-14T21:12:02.954Z,16.63
2018-12-14T21:16:47.424Z,13.03
2018-12-14T21:21:31.787Z,13.27
2018-12-14T21:26:16.833Z,11.97
2018-12-14T21:31:06.221Z,16.83
2018-12-14T21:35:53.384Z,14.23
2018-12-14T21:40:39.683Z,10.73
2018-12-14T21:45:28.628Z,12.43
2018-12-14T21:50:14.550Z,9.43
2018-12-14T21:54:58.870Z,11.37
2018-12-14T22:04:34.283Z,9.47
2018-12-14T22:09:19.466Z,8.53
2018-12-14T22:14:10.682Z,8.23
2018-12-14T22:18:57.538Z,14.17
2018-12-14T22:23:41.949Z,7.97
2018-12-14T22:28:26.953Z,8.20
2018-12-14T22:33:12.349Z,10.50
2018-12-14T22:37:58.304Z,6.37
2018-12-14T22:42:43.733Z,7.50
2018-12-14T22:47:28.127Z,9.33
2018-12-14T22:52:17.441Z,6.40
2018-12-14T22:57:01.577Z,7.97
2018-12-14T23:01:46.024Z,7.63
2018-12-14T23:06:36.914Z,7.27
2018-12-14T23:11:26.025Z,11.00
2018-12-14T23:16:11.401Z,11.50
2018-12-14T23:20:55.927Z,8.63
2018-12-14T23:25:42.327Z,7.97
2018-12-14T23:30:26.789Z,9.67
2018-12-14T23:35:12.662Z,7.57
2018-12-14T23:40:01.338Z,9.20
2018-12-14T23:44:51.363Z,7.60
2018-12-14T23:49:36.698Z,7.73
2018-12-14T23:54:20.773Z,6.03
2018-12-14T23:59:06.596Z,8.80
